Thetford Mines, Canada
Current Conditions -  °F | °C
As of 7:10 PM on Saturday 20 Dec 2014 (Local Time) from CYSC Reporting Station
Haze Haze  
Wind Chill:   Ceiling: Unl
Heat Index:   Visibility: 6mi
Dew Point:   Wind: 0mph
Humidity: 100%   Direction: NA
Pressure: 30.29"   Gusts: NA
Location:  46.08°N, 71.3°W
Report Text: CYSC 202310Z AUTO 00000KT 6SM BR CLR M13/M13 A3029 RMK SLP279
Loading
Personal Weather Stations






























Interactive Weather Map New forecast layout! Learn more

10-Day Weather Forecast

Advertisements
Track Severe Weather on mobile